Ripon, Wisconsin
Current Conditions -  °F | °C
As of 9:53 AM on Friday 24 Oct 2014 (Local Time) from KOSH Reporting Station
Haze Haze  
Wind Chill: 46°   Ceiling: 400
Heat Index: 49°   Visibility: 6mi
Dew Point: 47°   Wind: 7mph
Humidity: 93%   Direction: 190°S
Pressure: 30.02"   Gusts: NA
Location:  43.85°N, 88.84°W
Report Text: KOSH 241453Z 19006KT 6SM BR OVC004 09/08 A3002 RMK AO2 SLP169 T00940083 50001
Loading
Personal Weather Stations






























Interactive Weather Map
Tropical Storm Tracking
New forecast layout! Learn more

10-Day Weather Forecast

Advertisements
Track Severe Weather on mobile